sensor_id;sensor_type;location;lat;lon;timestamp;pressure;altitude;pressure_sealevel;temperature;humidity
70900;BME280;67902;52.154;5.430;2023-02-28T00:00:53;103268.44;;;2.32;79.92
70900;BME280;67902;52.154;5.430;2023-02-28T00:03:19;103269.59;;;2.40;80.17
70900;BME280;67902;52.154;5.430;2023-02-28T00:05:46;103264.59;;;2.46;80.24
70900;BME280;67902;52.154;5.430;2023-02-28T00:08:12;103274.44;;;2.46;79.44
70900;BME280;67902;52.154;5.430;2023-02-28T00:10:39;103268.81;;;2.49;80.22
70900;BME280;67902;52.154;5.430;2023-02-28T00:13:06;103273.91;;;2.52;80.26
70900;BME280;67902;52.154;5.430;2023-02-28T00:15:33;103265.22;;;2.59;79.96
70900;BME280;67902;52.154;5.430;2023-02-28T00:17:59;103267.53;;;2.64;80.63
70900;BME280;67902;52.154;5.430;2023-02-28T00:20:26;103276.69;;;2.71;80.49
70900;BME280;67902;52.154;5.430;2023-02-28T00:22:53;103267.38;;;2.65;79.63
70900;BME280;67902;52.154;5.430;2023-02-28T00:25:24;103267.13;;;2.48;78.85
70900;BME280;67902;52.154;5.430;2023-02-28T00:27:51;103270.84;;;2.56;80.07
70900;BME280;67902;52.154;5.430;2023-02-28T00:30:22;103272.88;;;2.64;79.82
70900;BME280;67902;52.154;5.430;2023-02-28T00:32:50;103274.72;;;2.73;79.98
70900;BME280;67902;52.154;5.430;2023-02-28T00:35:17;103266.25;;;2.68;79.42
70900;BME280;67902;52.154;5.430;2023-02-28T00:37:43;103265.66;;;2.64;80.51
70900;BME280;67902;52.154;5.430;2023-02-28T00:40:11;103259.03;;;2.59;80.76
70900;BME280;67902;52.154;5.430;2023-02-28T00:42:38;103262.22;;;2.53;79.84
70900;BME280;67902;52.154;5.430;2023-02-28T00:45:06;103263.59;;;2.47;79.81
70900;BME280;67902;52.154;5.430;2023-02-28T00:47:33;103278.81;;;2.47;79.89
70900;BME280;67902;52.154;5.430;2023-02-28T00:49:59;103264.44;;;2.48;80.14
70900;BME280;67902;52.154;5.430;2023-02-28T00:52:26;103253.94;;;2.56;80.71
70900;BME280;67902;52.154;5.430;2023-02-28T00:54:53;103259.75;;;2.61;80.95
70900;BME280;67902;52.154;5.430;2023-02-28T00:57:19;103254.31;;;2.72;81.82
70900;BME280;67902;52.154;5.430;2023-02-28T00:59:46;103269.81;;;2.78;80.58
70900;BME280;67902;52.154;5.430;2023-02-28T01:02:12;103262.66;;;2.78;81.25
70900;BME280;67902;52.154;5.430;2023-02-28T01:04:39;103263.94;;;2.84;81.01
70900;BME280;67902;52.154;5.430;2023-02-28T01:07:06;103262.28;;;2.92;80.87
70900;BME280;67902;52.154;5.430;2023-02-28T01:09:32;103264.25;;;2.90;80.55
70900;BME280;67902;52.154;5.430;2023-02-28T01:11:59;103262.16;;;2.94;81.23
70900;BME280;67902;52.154;5.430;2023-02-28T01:14:25;103262.34;;;3.02;80.98
70900;BME280;67902;52.154;5.430;2023-02-28T01:16:51;103267.41;;;3.05;80.27
70900;BME280;67902;52.154;5.430;2023-02-28T01:19:18;103266.72;;;3.03;80.10
70900;BME280;67902;52.154;5.430;2023-02-28T01:21:44;103257.56;;;3.06;80.70
70900;BME280;67902;52.154;5.430;2023-02-28T01:24:11;103265.72;;;3.04;80.04
70900;BME280;67902;52.154;5.430;2023-02-28T01:26:38;103261.16;;;2.95;80.53
70900;BME280;67902;52.154;5.430;2023-02-28T01:29:05;103250.66;;;3.03;80.74
70900;BME280;67902;52.154;5.430;2023-02-28T01:31:31;103249.53;;;3.06;79.80
70900;BME280;67902;52.154;5.430;2023-02-28T01:33:58;103247.13;;;3.03;80.40
70900;BME280;67902;52.154;5.430;2023-02-28T01:36:25;103252.34;;;3.04;80.23
70900;BME280;67902;52.154;5.430;2023-02-28T01:38:52;103253.59;;;3.00;80.13
70900;BME280;67902;52.154;5.430;2023-02-28T01:41:24;103248.09;;;3.02;80.71
70900;BME280;67902;52.154;5.430;2023-02-28T01:46:22;103252.47;;;3.03;81.09
70900;BME280;67902;52.154;5.430;2023-02-28T01:49:04;103250.66;;;3.03;80.14
70900;BME280;67902;52.154;5.430;2023-02-28T01:51:41;103245.16;;;3.05;80.35
70900;BME280;67902;52.154;5.430;2023-02-28T01:54:16;103249.94;;;3.01;79.70
70900;BME280;67902;52.154;5.430;2023-02-28T01:56:53;103239.38;;;3.00;80.28
70900;BME280;67902;52.154;5.430;2023-02-28T01:59:25;103241.19;;;2.99;81.36
70900;BME280;67902;52.154;5.430;2023-02-28T02:01:53;103234.88;;;3.00;80.26
70900;BME280;67902;52.154;5.430;2023-02-28T02:04:23;103232.31;;;2.89;80.98
70900;BME280;67902;52.154;5.430;2023-02-28T02:06:52;103227.38;;;2.94;81.09
70900;BME280;67902;52.154;5.430;2023-02-28T02:09:18;103228.66;;;3.00;81.25
70900;BME280;67902;52.154;5.430;2023-02-28T02:11:45;103227.97;;;3.07;81.51
70900;BME280;67902;52.154;5.430;2023-02-28T02:17:33;103224.16;;;3.00;81.00
70900;BME280;67902;52.154;5.430;2023-02-28T02:39:53;103228.50;;;3.01;81.18
70900;BME280;67902;52.154;5.430;2023-02-28T02:42:40;103233.28;;;2.98;82.12
70900;BME280;67902;52.154;5.430;2023-02-28T02:45:16;103232.63;;;3.05;81.58
70900;BME280;67902;52.154;5.430;2023-02-28T02:47:45;103225.84;;;3.01;81.92
70900;BME280;67902;52.154;5.430;2023-02-28T02:50:26;103228.94;;;3.06;81.58
70900;BME280;67902;52.154;5.430;2023-02-28T02:52:58;103229.69;;;3.08;80.81
70900;BME280;67902;52.154;5.430;2023-02-28T02:55:26;103229.53;;;3.00;81.68
70900;BME280;67902;52.154;5.430;2023-02-28T02:57:58;103232.19;;;3.00;81.38
70900;BME280;67902;52.154;5.430;2023-02-28T03:00:31;103228.25;;;3.04;81.87
70900;BME280;67902;52.154;5.430;2023-02-28T03:03:01;103223.78;;;3.14;82.15
70900;BME280;67902;52.154;5.430;2023-02-28T03:05:34;103228.84;;;3.17;81.78
70900;BME280;67902;52.154;5.430;2023-02-28T03:08:04;103231.81;;;3.14;82.46
70900;BME280;67902;52.154;5.430;2023-02-28T03:18:55;103226.00;;;3.09;82.27
70900;BME280;67902;52.154;5.430;2023-02-28T03:21:43;103233.22;;;3.09;82.27
70900;BME280;67902;52.154;5.430;2023-02-28T03:24:22;103227.56;;;3.12;82.60
70900;BME280;67902;52.154;5.430;2023-02-28T03:27:01;103235.59;;;3.12;82.12
70900;BME280;67902;52.154;5.430;2023-02-28T03:29:35;103232.09;;;3.11;82.81
70900;BME280;67902;52.154;5.430;2023-02-28T03:32:08;103236.16;;;3.15;82.42
70900;BME280;67902;52.154;5.430;2023-02-28T03:34:46;103231.81;;;3.14;82.78
70900;BME280;67902;52.154;5.430;2023-02-28T03:37:19;103229.84;;;3.16;83.29
70900;BME280;67902;52.154;5.430;2023-02-28T03:39:56;103233.91;;;3.20;83.53
70900;BME280;67902;52.154;5.430;2023-02-28T03:42:27;103236.31;;;3.23;82.64
70900;BME280;67902;52.154;5.430;2023-02-28T03:45:01;103234.50;;;3.24;82.95
70900;BME280;67902;52.154;5.430;2023-02-28T03:50:25;103246.34;;;3.21;82.32
70900;BME280;67902;52.154;5.430;2023-02-28T03:55:47;103254.91;;;3.15;81.53
70900;BME280;67902;52.154;5.430;2023-02-28T04:01:39;103254.31;;;3.12;80.65
70900;BME280;67902;52.154;5.430;2023-02-28T04:04:11;103242.78;;;3.11;80.63
70900;BME280;67902;52.154;5.430;2023-02-28T04:06:39;103246.03;;;3.15;80.40
70900;BME280;67902;52.154;5.430;2023-02-28T04:09:08;103243.94;;;3.18;80.69
70900;BME280;67902;52.154;5.430;2023-02-28T04:11:44;103249.72;;;3.23;80.99
70900;BME280;67902;52.154;5.430;2023-02-28T04:14:11;103258.75;;;3.22;79.80
70900;BME280;67902;52.154;5.430;2023-02-28T04:16:40;103253.13;;;3.25;79.70
70900;BME280;67902;52.154;5.430;2023-02-28T04:19:08;103248.03;;;3.22;78.92
70900;BME280;67902;52.154;5.430;2023-02-28T04:21:37;103250.25;;;3.17;77.67
70900;BME280;67902;52.154;5.430;2023-02-28T04:24:09;103254.91;;;3.15;77.63
70900;BME280;67902;52.154;5.430;2023-02-28T04:26:42;103257.47;;;3.17;74.97
70900;BME280;67902;52.154;5.430;2023-02-28T04:29:11;103264.31;;;3.10;74.18
70900;BME280;67902;52.154;5.430;2023-02-28T04:31:38;103265.97;;;3.01;73.26
70900;BME280;67902;52.154;5.430;2023-02-28T04:34:04;103265.81;;;2.93;71.15
70900;BME280;67902;52.154;5.430;2023-02-28T04:36:31;103268.91;;;2.88;70.81
70900;BME280;67902;52.154;5.430;2023-02-28T04:38:57;103258.59;;;2.84;70.63
70900;BME280;67902;52.154;5.430;2023-02-28T04:41:24;103266.63;;;2.84;70.51
70900;BME280;67902;52.154;5.430;2023-02-28T04:43:51;103269.81;;;2.78;70.71
70900;BME280;67902;52.154;5.430;2023-02-28T04:46:19;103275.31;;;2.76;72.04
70900;BME280;67902;52.154;5.430;2023-02-28T04:48:46;103269.09;;;2.76;70.68
70900;BME280;67902;52.154;5.430;2023-02-28T04:51:14;103265.03;;;2.72;71.06
70900;BME280;67902;52.154;5.430;2023-02-28T04:53:42;103258.50;;;2.65;71.05
70900;BME280;67902;52.154;5.430;2023-02-28T04:56:12;103266.94;;;2.60;71.40
70900;BME280;67902;52.154;5.430;2023-02-28T04:58:39;103263.81;;;2.55;71.45
70900;BME280;67902;52.154;5.430;2023-02-28T05:01:23;103267.72;;;2.51;71.87
70900;BME280;67902;52.154;5.430;2023-02-28T05:03:52;103270.78;;;2.47;72.17
70900;BME280;67902;52.154;5.430;2023-02-28T05:06:18;103264.41;;;2.38;72.72
70900;BME280;67902;52.154;5.430;2023-02-28T05:08:46;103258.47;;;2.34;73.30
70900;BME280;67902;52.154;5.430;2023-02-28T05:11:18;103265.59;;;2.24;73.49
70900;BME280;67902;52.154;5.430;2023-02-28T05:13:46;103261.00;;;2.15;75.41
70900;BME280;67902;52.154;5.430;2023-02-28T05:16:13;103268.28;;;2.13;75.66
70900;BME280;67902;52.154;5.430;2023-02-28T05:18:40;103269.19;;;2.03;76.11
70900;BME280;67902;52.154;5.430;2023-02-28T05:21:23;103269.84;;;1.95;76.87
70900;BME280;67902;52.154;5.430;2023-02-28T05:23:51;103275.59;;;1.91;77.02
70900;BME280;67902;52.154;5.430;2023-02-28T05:26:17;103285.66;;;1.87;77.44
70900;BME280;67902;52.154;5.430;2023-02-28T05:28:44;103277.41;;;1.90;77.43
70900;BME280;67902;52.154;5.430;2023-02-28T05:31:10;103279.34;;;1.88;77.95
70900;BME280;67902;52.154;5.430;2023-02-28T05:33:37;103282.75;;;1.90;78.28
70900;BME280;67902;52.154;5.430;2023-02-28T05:36:04;103278.63;;;1.86;78.04
70900;BME280;67902;52.154;5.430;2023-02-28T05:38:30;103283.00;;;1.87;78.20
70900;BME280;67902;52.154;5.430;2023-02-28T05:40:57;103280.19;;;1.89;78.93
70900;BME280;67902;52.154;5.430;2023-02-28T05:43:23;103279.09;;;1.91;79.66
70900;BME280;67902;52.154;5.430;2023-02-28T05:45:50;103272.91;;;1.91;79.33
70900;BME280;67902;52.154;5.430;2023-02-28T05:48:16;103275.09;;;1.86;79.38
70900;BME280;67902;52.154;5.430;2023-02-28T05:50:44;103278.50;;;1.88;80.68
70900;BME280;67902;52.154;5.430;2023-02-28T05:53:12;103278.50;;;1.88;80.52
70900;BME280;67902;52.154;5.430;2023-02-28T05:55:39;103286.53;;;1.88;81.63
70900;BME280;67902;52.154;5.430;2023-02-28T05:58:07;103284.69;;;1.88;81.45
70900;BME280;67902;52.154;5.430;2023-02-28T06:00:33;103275.09;;;1.86;81.21
70900;BME280;67902;52.154;5.430;2023-02-28T06:03:00;103277.31;;;1.81;82.23
70900;BME280;67902;52.154;5.430;2023-02-28T06:05:28;103278.66;;;1.75;83.06
70900;BME280;67902;52.154;5.430;2023-02-28T06:07:54;103280.47;;;1.74;83.68
70900;BME280;67902;52.154;5.430;2023-02-28T06:10:21;103275.53;;;1.70;84.58
70900;BME280;67902;52.154;5.430;2023-02-28T06:12:47;103278.91;;;1.72;84.21
70900;BME280;67902;52.154;5.430;2023-02-28T06:15:14;103281.47;;;1.73;84.35
70900;BME280;67902;52.154;5.430;2023-02-28T06:17:42;103282.34;;;1.74;84.84
70900;BME280;67902;52.154;5.430;2023-02-28T06:20:10;103275.13;;;1.74;84.92
70900;BME280;67902;52.154;5.430;2023-02-28T06:22:39;103270.78;;;1.73;84.86
70900;BME280;67902;52.154;5.430;2023-02-28T06:25:06;103273.56;;;1.72;85.61
70900;BME280;67902;52.154;5.430;2023-02-28T06:27:33;103264.84;;;1.70;85.18
70900;BME280;67902;52.154;5.430;2023-02-28T06:30:00;103275.03;;;1.76;85.56
70900;BME280;67902;52.154;5.430;2023-02-28T06:32:26;103276.38;;;1.70;85.78
70900;BME280;67902;52.154;5.430;2023-02-28T06:34:53;103272.00;;;1.69;85.04
70900;BME280;67902;52.154;5.430;2023-02-28T06:37:21;103275.53;;;1.70;86.13
70900;BME280;67902;52.154;5.430;2023-02-28T06:39:48;103277.50;;;1.68;85.61
70900;BME280;67902;52.154;5.430;2023-02-28T06:42:14;103281.84;;;1.69;85.35
70900;BME280;67902;52.154;5.430;2023-02-28T06:44:41;103274.44;;;1.72;85.22
70900;BME280;67902;52.154;5.430;2023-02-28T06:47:09;103273.56;;;1.72;85.46
70900;BME280;67902;52.154;5.430;2023-02-28T06:49:35;103262.88;;;1.72;86.23
70900;BME280;67902;52.154;5.430;2023-02-28T06:52:02;103263.34;;;1.77;85.99
70900;BME280;67902;52.154;5.430;2023-02-28T06:54:29;103273.94;;;1.79;86.32
70900;BME280;67902;52.154;5.430;2023-02-28T06:56:57;103280.63;;;1.73;85.92
70900;BME280;67902;52.154;5.430;2023-02-28T06:59:24;103282.19;;;1.75;86.29
70900;BME280;67902;52.154;5.430;2023-02-28T07:01:50;103285.22;;;1.82;86.41
70900;BME280;67902;52.154;5.430;2023-02-28T07:04:17;103287.53;;;1.75;85.76
70900;BME280;67902;52.154;5.430;2023-02-28T07:06:43;103285.66;;;1.87;86.61
70900;BME280;67902;52.154;5.430;2023-02-28T07:09:10;103289.25;;;1.97;86.84
70900;BME280;67902;52.154;5.430;2023-02-28T07:11:37;103292.41;;;2.02;86.60
70900;BME280;67902;52.154;5.430;2023-02-28T07:14:03;103285.69;;;2.08;87.12
70900;BME280;67902;52.154;5.430;2023-02-28T07:16:30;103294.75;;;2.16;87.19
70900;BME280;67902;52.154;5.430;2023-02-28T07:18:56;103286.63;;;2.18;86.75
70900;BME280;67902;52.154;5.430;2023-02-28T07:21:23;103295.75;;;2.15;86.55
70900;BME280;67902;52.154;5.430;2023-02-28T07:23:49;103296.97;;;2.11;86.23
70900;BME280;67902;52.154;5.430;2023-02-28T07:26:17;103287.78;;;2.04;85.95
70900;BME280;67902;52.154;5.430;2023-02-28T07:28:45;103297.47;;;2.05;86.50
70900;BME280;67902;52.154;5.430;2023-02-28T07:31:15;103302.81;;;2.05;87.02
70900;BME280;67902;52.154;5.430;2023-02-28T07:33:41;103291.13;;;2.17;87.41
70900;BME280;67902;52.154;5.430;2023-02-28T07:36:14;103291.91;;;2.29;87.05
70900;BME280;67902;52.154;5.430;2023-02-28T07:38:42;103287.28;;;2.31;86.99
70900;BME280;67902;52.154;5.430;2023-02-28T07:41:13;103298.56;;;2.34;87.17
70900;BME280;67902;52.154;5.430;2023-02-28T07:43:39;103304.75;;;2.35;86.61
70900;BME280;67902;52.154;5.430;2023-02-28T07:46:08;103301.09;;;2.36;87.07
70900;BME280;67902;52.154;5.430;2023-02-28T07:48:35;103309.72;;;2.40;86.68
70900;BME280;67902;52.154;5.430;2023-02-28T07:51:02;103302.88;;;2.47;86.65
70900;BME280;67902;52.154;5.430;2023-02-28T07:53:29;103307.69;;;2.53;86.43
70900;BME280;67902;52.154;5.430;2023-02-28T07:55:57;103302.94;;;2.56;86.85
70900;BME280;67902;52.154;5.430;2023-02-28T07:58:25;103286.94;;;2.66;86.29
70900;BME280;67902;52.154;5.430;2023-02-28T08:00:52;103298.00;;;2.82;85.68
70900;BME280;67902;52.154;5.430;2023-02-28T08:03:20;103306.22;;;2.90;85.42
70900;BME280;67902;52.154;5.430;2023-02-28T08:05:47;103313.38;;;2.89;85.08
70900;BME280;67902;52.154;5.430;2023-02-28T08:08:15;103321.97;;;2.83;84.79
70900;BME280;67902;52.154;5.430;2023-02-28T08:10:45;103316.81;;;2.91;84.79
70900;BME280;67902;52.154;5.430;2023-02-28T08:13:11;103320.28;;;2.92;84.48
70900;BME280;67902;52.154;5.430;2023-02-28T08:15:38;103324.69;;;2.93;84.31
70900;BME280;67902;52.154;5.430;2023-02-28T08:18:04;103325.66;;;2.92;84.43
70900;BME280;67902;52.154;5.430;2023-02-28T08:20:30;103331.00;;;2.92;83.89
70900;BME280;67902;52.154;5.430;2023-02-28T08:22:57;103338.75;;;2.95;83.52
70900;BME280;67902;52.154;5.430;2023-02-28T08:25:23;103330.81;;;2.84;83.52
70900;BME280;67902;52.154;5.430;2023-02-28T08:27:52;103328.81;;;2.97;82.92
70900;BME280;67902;52.154;5.430;2023-02-28T08:30:19;103328.53;;;3.00;82.34
70900;BME280;67902;52.154;5.430;2023-02-28T08:32:46;103330.56;;;3.17;81.76
70900;BME280;67902;52.154;5.430;2023-02-28T08:35:12;103324.13;;;3.20;81.56
70900;BME280;67902;52.154;5.430;2023-02-28T08:37:39;103321.59;;;3.28;82.46
70900;BME280;67902;52.154;5.430;2023-02-28T08:40:06;103329.28;;;3.42;81.45
70900;BME280;67902;52.154;5.430;2023-02-28T08:42:33;103323.06;;;3.41;80.29
70900;BME280;67902;52.154;5.430;2023-02-28T08:44:59;103317.69;;;3.41;79.50
70900;BME280;67902;52.154;5.430;2023-02-28T08:47:26;103309.41;;;3.44;79.08
70900;BME280;67902;52.154;5.430;2023-02-28T08:49:52;103309.56;;;3.62;77.77
70900;BME280;67902;52.154;5.430;2023-02-28T08:52:19;103311.84;;;3.76;76.00
70900;BME280;67902;52.154;5.430;2023-02-28T08:54:45;103320.59;;;3.88;74.67
70900;BME280;67902;52.154;5.430;2023-02-28T08:57:12;103320.91;;;3.94;74.44
70900;BME280;67902;52.154;5.430;2023-02-28T08:59:38;103322.47;;;3.97;73.62
70900;BME280;67902;52.154;5.430;2023-02-28T09:02:04;103319.50;;;4.00;72.68
70900;BME280;67902;52.154;5.430;2023-02-28T09:04:31;103316.09;;;4.07;69.37
70900;BME280;67902;52.154;5.430;2023-02-28T09:06:57;103326.97;;;4.16;67.97
70900;BME280;67902;52.154;5.430;2023-02-28T09:09:24;103316.69;;;4.40;67.95
70900;BME280;67902;52.154;5.430;2023-02-28T09:11:50;103319.38;;;4.96;65.37
70900;BME280;67902;52.154;5.430;2023-02-28T09:14:16;103314.41;;;5.82;63.40
70900;BME280;67902;52.154;5.430;2023-02-28T09:16:43;103314.53;;;6.52;59.96
70900;BME280;67902;52.154;5.430;2023-02-28T09:19:11;103308.38;;;8.43;55.17
70900;BME280;67902;52.154;5.430;2023-02-28T09:21:38;103304.19;;;11.45;47.16
70900;BME280;67902;52.154;5.430;2023-02-28T09:24:05;103312.72;;;11.92;46.51
70900;BME280;67902;52.154;5.430;2023-02-28T09:26:31;103300.59;;;11.74;44.01
70900;BME280;67902;52.154;5.430;2023-02-28T09:29:14;103304.97;;;11.24;41.46
70900;BME280;67902;52.154;5.430;2023-02-28T09:31:42;103308.78;;;11.15;40.88
70900;BME280;67902;52.154;5.430;2023-02-28T09:34:09;103306.84;;;12.31;37.51
70900;BME280;67902;52.154;5.430;2023-02-28T09:36:36;103309.41;;;13.63;34.83
70900;BME280;67902;52.154;5.430;2023-02-28T09:39:12;103310.72;;;13.87;33.45
70900;BME280;67902;52.154;5.430;2023-02-28T09:41:44;103307.91;;;13.13;33.12
70900;BME280;67902;52.154;5.430;2023-02-28T09:47:11;103309.84;;;13.73;33.67
70900;BME280;67902;52.154;5.430;2023-02-28T09:49:45;103317.81;;;12.02;33.47
70900;BME280;67902;52.154;5.430;2023-02-28T09:52:21;103327.28;;;10.22;36.03
70900;BME280;67902;52.154;5.430;2023-02-28T09:54:50;103330.91;;;9.14;37.52
70900;BME280;67902;52.154;5.430;2023-02-28T09:57:25;103327.94;;;8.61;36.69
70900;BME280;67902;52.154;5.430;2023-02-28T10:00:07;103324.25;;;8.30;40.19
70900;BME280;67902;52.154;5.430;2023-02-28T10:05:51;103316.66;;;8.41;40.34
70900;BME280;67902;52.154;5.430;2023-02-28T10:08:25;103321.53;;;8.54;39.16
70900;BME280;67902;52.154;5.430;2023-02-28T10:11:01;103316.47;;;8.43;40.21
70900;BME280;67902;52.154;5.430;2023-02-28T10:13:45;103310.91;;;8.60;40.34
70900;BME280;67902;52.154;5.430;2023-02-28T10:19:03;103315.94;;;10.27;36.46
70900;BME280;67902;52.154;5.430;2023-02-28T10:21:38;103297.56;;;11.47;35.29
70900;BME280;67902;52.154;5.430;2023-02-28T10:24:20;103294.66;;;12.76;31.47
70900;BME280;67902;52.154;5.430;2023-02-28T10:26:52;103304.41;;;11.14;31.91
70900;BME280;67902;52.154;5.430;2023-02-28T10:29:22;103297.44;;;9.85;35.54
70900;BME280;67902;52.154;5.430;2023-02-28T10:31:48;103298.47;;;12.54;33.44
70900;BME280;67902;52.154;5.430;2023-02-28T10:34:15;103293.06;;;15.34;27.56
70900;BME280;67902;52.154;5.430;2023-02-28T10:36:42;103292.25;;;16.40;25.15
70900;BME280;67902;52.154;5.430;2023-02-28T10:42:05;103284.13;;;17.37;23.75
70900;BME280;67902;52.154;5.430;2023-02-28T10:44:44;103284.75;;;17.39;25.94
70900;BME280;67902;52.154;5.430;2023-02-28T10:47:17;103288.50;;;18.05;23.24
70900;BME280;67902;52.154;5.430;2023-02-28T10:49:49;103294.75;;;18.23;23.68
70900;BME280;67902;52.154;5.430;2023-02-28T10:52:39;103283.59;;;18.48;22.43
70900;BME280;67902;52.154;5.430;2023-02-28T10:55:25;103284.03;;;18.45;23.35
70900;BME280;67902;52.154;5.430;2023-02-28T10:57:52;103270.13;;;17.93;21.82
70900;BME280;67902;52.154;5.430;2023-02-28T11:00:23;103280.63;;;18.49;21.33
70900;BME280;67902;52.154;5.430;2023-02-28T11:02:51;103278.69;;;18.50;21.83
70900;BME280;67902;52.154;5.430;2023-02-28T11:05:30;103264.84;;;17.92;21.89
70900;BME280;67902;52.154;5.430;2023-02-28T11:08:21;103263.84;;;17.75;22.61
70900;BME280;67902;52.154;5.430;2023-02-28T11:10:56;103268.22;;;18.82;21.40
70900;BME280;67902;52.154;5.430;2023-02-28T11:13:33;103260.56;;;18.95;22.54
70900;BME280;67902;52.154;5.430;2023-02-28T11:16:04;103249.25;;;19.43;22.51
70900;BME280;67902;52.154;5.430;2023-02-28T11:18:54;103251.94;;;19.83;22.40
70900;BME280;67902;52.154;5.430;2023-02-28T11:21:28;103258.38;;;20.05;20.33
70900;BME280;67902;52.154;5.430;2023-02-28T11:24:02;103253.38;;;19.06;21.03
70900;BME280;67902;52.154;5.430;2023-02-28T11:26:39;103259.50;;;18.85;21.09
70900;BME280;67902;52.154;5.430;2023-02-28T11:29:12;103253.25;;;19.13;21.44
70900;BME280;67902;52.154;5.430;2023-02-28T11:31:42;103247.81;;;19.41;20.47
70900;BME280;67902;52.154;5.430;2023-02-28T11:34:29;103238.75;;;19.29;22.08
70900;BME280;67902;52.154;5.430;2023-02-28T11:36:57;103243.16;;;19.30;20.33
70900;BME280;67902;52.154;5.430;2023-02-28T11:39:25;103242.72;;;19.89;23.04
70900;BME280;67902;52.154;5.430;2023-02-28T11:42:10;103237.47;;;20.21;20.13
70900;BME280;67902;52.154;5.430;2023-02-28T11:47:48;103235.09;;;19.51;21.55
70900;BME280;67902;52.154;5.430;2023-02-28T11:55:49;103223.19;;;19.91;18.76
70900;BME280;67902;52.154;5.430;2023-02-28T12:06:56;103215.31;;;20.44;20.05
70900;BME280;67902;52.154;5.430;2023-02-28T12:15:23;103217.84;;;19.39;20.35
70900;BME280;67902;52.154;5.430;2023-02-28T12:18:54;103217.09;;;19.72;19.84
70900;BME280;67902;52.154;5.430;2023-02-28T12:24:00;103208.84;;;20.55;19.67
70900;BME280;67902;52.154;5.430;2023-02-28T12:26:48;103205.47;;;20.48;19.96
70900;BME280;67902;52.154;5.430;2023-02-28T12:29:22;103203.88;;;20.19;19.97
70900;BME280;67902;52.154;5.430;2023-02-28T12:32:07;103195.88;;;20.01;20.55
70900;BME280;67902;52.154;5.430;2023-02-28T12:34:46;103189.09;;;20.58;21.59
70900;BME280;67902;52.154;5.430;2023-02-28T12:37:19;103191.63;;;21.25;20.12
70900;BME280;67902;52.154;5.430;2023-02-28T12:39:50;103197.81;;;20.72;19.22
70900;BME280;67902;52.154;5.430;2023-02-28T12:42:29;103205.06;;;20.40;18.75
70900;BME280;67902;52.154;5.430;2023-02-28T12:45:02;103201.47;;;20.39;18.40
70900;BME280;67902;52.154;5.430;2023-02-28T12:47:31;103192.31;;;20.72;18.38
70900;BME280;67902;52.154;5.430;2023-02-28T12:50:06;103187.84;;;20.88;19.20
70900;BME280;67902;52.154;5.430;2023-02-28T12:57:40;103183.28;;;20.76;18.15
70900;BME280;67902;52.154;5.430;2023-02-28T13:00:15;103185.88;;;20.45;18.00
70900;BME280;67902;52.154;5.430;2023-02-28T13:02:51;103173.94;;;20.77;18.39
70900;BME280;67902;52.154;5.430;2023-02-28T13:08:42;103170.91;;;21.01;18.92
70900;BME280;67902;52.154;5.430;2023-02-28T13:14:43;103166.91;;;20.27;18.64
70900;BME280;67902;52.154;5.430;2023-02-28T13:20:13;103159.50;;;21.35;19.75
70900;BME280;67902;52.154;5.430;2023-02-28T13:22:45;103159.06;;;21.75;17.66
70900;BME280;67902;52.154;5.430;2023-02-28T13:27:57;103164.25;;;20.53;18.44
70900;BME280;67902;52.154;5.430;2023-02-28T13:30:59;103159.28;;;20.17;20.65
70900;BME280;67902;52.154;5.430;2023-02-28T13:33:36;103158.16;;;21.38;20.35
70900;BME280;67902;52.154;5.430;2023-02-28T13:36:32;103151.72;;;21.86;18.09
70900;BME280;67902;52.154;5.430;2023-02-28T13:39:03;103146.63;;;22.05;17.63
70900;BME280;67902;52.154;5.430;2023-02-28T13:41:49;103145.84;;;21.77;17.44
70900;BME280;67902;52.154;5.430;2023-02-28T13:57:42;103142.41;;;21.65;17.46
70900;BME280;67902;52.154;5.430;2023-02-28T14:00:20;103133.69;;;21.20;16.78
70900;BME280;67902;52.154;5.430;2023-02-28T14:05:25;103125.38;;;22.00;17.68
70900;BME280;67902;52.154;5.430;2023-02-28T14:07:55;103119.34;;;22.60;18.36
70900;BME280;67902;52.154;5.430;2023-02-28T14:10:32;103112.97;;;22.54;17.11
70900;BME280;67902;52.154;5.430;2023-02-28T14:13:39;103113.91;;;22.65;17.00
70900;BME280;67902;52.154;5.430;2023-02-28T14:16:19;103124.72;;;22.30;18.16
70900;BME280;67902;52.154;5.430;2023-02-28T14:19:04;103117.59;;;22.34;17.55
70900;BME280;67902;52.154;5.430;2023-02-28T14:21:35;103115.69;;;22.44;16.60
70900;BME280;67902;52.154;5.430;2023-02-28T14:27:21;103112.53;;;22.21;17.58
70900;BME280;67902;52.154;5.430;2023-02-28T14:32:45;103104.38;;;21.09;18.18
70900;BME280;67902;52.154;5.430;2023-02-28T14:35:23;103110.28;;;21.49;18.92
70900;BME280;67902;52.154;5.430;2023-02-28T14:37:54;103106.41;;;22.14;19.62
70900;BME280;67902;52.154;5.430;2023-02-28T14:40:27;103105.56;;;22.13;16.55
70900;BME280;67902;52.154;5.430;2023-02-28T14:42:58;103106.03;;;21.36;17.38
70900;BME280;67902;52.154;5.430;2023-02-28T14:45:29;103105.53;;;21.13;19.29
70900;BME280;67902;52.154;5.430;2023-02-28T14:47:57;103108.81;;;21.68;17.50
70900;BME280;67902;52.154;5.430;2023-02-28T14:50:31;103103.34;;;21.78;17.72
70900;BME280;67902;52.154;5.430;2023-02-28T14:52:58;103095.38;;;22.14;17.59
70900;BME280;67902;52.154;5.430;2023-02-28T14:55:30;103097.56;;;22.12;16.14
70900;BME280;67902;52.154;5.430;2023-02-28T14:57:59;103099.72;;;21.36;16.40
70900;BME280;67902;52.154;5.430;2023-02-28T15:00:28;103103.78;;;21.60;17.34
70900;BME280;67902;52.154;5.430;2023-02-28T15:02:56;103105.88;;;22.17;17.13
70900;BME280;67902;52.154;5.430;2023-02-28T15:05:29;103099.75;;;22.10;16.46
70900;BME280;67902;52.154;5.430;2023-02-28T15:08:06;103103.22;;;20.61;16.74
70900;BME280;67902;52.154;5.430;2023-02-28T15:10:36;103099.69;;;20.88;17.66
70900;BME280;67902;52.154;5.430;2023-02-28T15:13:22;103108.41;;;21.28;18.00
70900;BME280;67902;52.154;5.430;2023-02-28T15:15:56;103099.47;;;20.67;18.64